Latest Weather Observations for Roseworthy

IDS60801

Issued at 10:42 pm CDT Friday 15 November 2019 (issued every 10 minutes, with the page automatically refreshed every 10 minutes)

About weather observations | Map of weather stations | Latest weather observations for SA | Other Formats
Station Details ID: 023122 Name: ROSEWORTHY AWS Lat: -34.51 Lon: 138.68 Height: 65.0 m
Data from the previous 72 hours. | See also: Recent months at Roseworthy
Date/Time
CDT
Temp
°C
App
Temp
°C
Dew
Point
°C
Rel
Hum
%
Delta-T
°C
Wind Press
QNH
hPa
Press
MSL
hPa
Rain since
9am
mm
Dir  Spd
km/h
Gust
km/h
Spd
kts
Gust
kts
15/10:30pm 14.9 11.0 8.8 67 3.1 SSW 19 28 10 15 1020.2 1020.0 0.0
15/10:00pm 14.9 11.8 8.8 67 3.1 SW 15 20 8 11 1019.9 1019.7 0.0
15/09:30pm 14.5 12.1 10.1 75 2.3 SW 13 19 7 10 1019.7 1019.5 0.0
15/09:00pm 14.0 12.5 9.0 72 2.5 SW 7 11 4 6 1019.4 1019.2 0.0
15/08:30pm 14.2 11.1 9.0 71 2.6 SSW 15 17 8 9 1019.1 1018.9 0.0
15/08:00pm 15.0 11.3 9.4 69 2.9 SW 19 26 10 14 1018.8 1018.6 0.0
15/07:30pm 16.1 12.3 9.1 63 3.6 SW 19 26 10 14 1018.5 1018.3 0.0
15/07:00pm 16.6 12.7 9.3 62 3.8 SW 20 30 11 16 1018.1 1017.9 0.0
15/06:30pm 16.7 11.5 8.7 59 4.1 SSW 26 33 14 18 1017.7 1017.5 0.0
15/06:00pm 17.2 11.5 8.4 56 4.5 SW 28 37 15 20 1017.4 1017.2 0.0
15/05:30pm 17.7 11.9 8.0 53 4.9 SW 28 37 15 20 1017.3 1017.1 0.0
15/05:00pm 18.1 12.2 7.5 50 5.4 SW 28 41 15 22 1017.1 1016.9 0.0
15/04:30pm 18.7 12.9 7.8 49 5.6 SW 28 44 15 24 1017.0 1016.8 0.0
15/04:00pm 18.5 12.7 7.9 50 5.4 SW 28 46 15 25 1016.9 1016.7 0.0
15/03:59pm 18.9 13.2 8.3 50 5.5 SW 28 46 15 25 1016.8 1016.6 0.0
15/03:30pm 18.7 13.7 8.1 50 5.5 SW 24 39 13 21 1016.9 1016.7 0.0
15/03:00pm 18.1 13.1 8.1 52 5.1 SW 24 37 13 20 1017.1 1016.9 0.0
15/02:30pm 19.2 14.3 8.5 50 5.6 SW 24 37 13 20 1017.0 1016.8 0.0
15/02:00pm 18.7 13.6 7.8 49 5.6 SW 24 33 13 18 1017.0 1016.8 0.0
15/01:30pm 19.5 14.1 7.9 47 6.0 SW 26 35 14 19 1017.0 1016.8 0.0
15/01:00pm 19.0 14.2 7.4 47 5.9 SW 22 32 12 17 1017.1 1016.9 0.0
15/12:30pm 18.7 13.6 7.8 49 5.6 SW 24 35 13 19 1017.2 1017.0 0.0
15/12:00pm 18.5 12.9 7.3 48 5.7 WSW 26 39 14 21 1017.4 1017.2 0.0
15/11:30am 17.0 10.9 6.5 50 5.2 SW 28 37 15 20 1017.4 1017.2 0.0
15/11:00am 16.8 10.9 7.4 54 4.7 WSW 28 37 15 20 1017.4 1017.2 0.0
15/10:30am 17.7 12.2 7.4 51 5.2 WSW 26 35 14 19 1017.3 1017.1 0.0
15/10:00am 17.4 12.4 8.0 54 4.8 WSW 24 33 13 18 1017.1 1016.9 0.0
15/09:30am 17.5 12.9 8.1 54 4.8 WSW 22 30 12 16 1017.0 1016.8 0.0
15/09:00am 15.9 10.6 6.9 55 4.4 WSW 24 41 13 22 1017.0 1016.8 0.0
15/08:30am 16.3 11.1 7.3 55 4.5 WSW 24 33 13 18 1016.7 1016.5 0.0
15/08:00am 15.5 10.4 7.5 59 4.0 WSW 24 32 13 17 1016.4 1016.2 0.0
15/07:30am 14.6 9.4 7.2 61 3.6 WSW 24 39 13 21 1016.1 1015.9 0.0
15/07:00am 13.1 10.6 8.2 72 2.4 WNW 11 13 6 7 1016.1 1015.9 0.0
15/06:30am 12.0 9.4 7.9 76 2.0 WNW 11 13 6 7 1016.0 1015.8 0.0
15/06:00am 11.9 8.5 7.8 76 2.0 W 15 20 8 11 1015.8 1015.6 0.0
15/05:30am 10.1 7.0 7.3 83 1.3 WNW 13 15 7 8 1015.5 1015.3 0.0
15/05:00am 8.4 5.4 6.2 86 1.0 WNW 11 13 6 7 1015.2 1015.0 0.0
15/04:30am 8.4 5.2 5.3 81 1.4 WNW 11 15 6 8 1015.1 1014.9 0.0
15/04:00am 9.0 5.6 6.1 82 1.3 WNW 13 15 7 8 1015.1 1014.9 0.0
15/03:30am 9.8 6.5 6.3 79 1.6 W 13 17 7 9 1015.3 1015.1 0.0
15/03:00am 11.8 8.7 7.3 74 2.2 W 13 15 7 8 1015.6 1015.4 0.0
15/02:30am 11.8 8.3 7.3 74 2.2 WNW 15 17 8 9 1015.8 1015.6 0.0
15/02:00am 11.9 8.0 7.0 72 2.4 W 17 20 9 11 1016.1 1015.9 0.0
15/01:30am 13.0 9.6 7.5 69 2.7 WSW 15 17 8 9 1016.4 1016.2 0.0
15/01:00am 13.5 10.9 7.7 68 2.9 WSW 11 15 6 8 1016.6 1016.4 0.0
15/12:30am 13.5 10.9 7.9 69 2.8 WSW 11 15 6 8 1017.0 1016.8 0.0
15/12:00am 14.0 10.3 8.0 67 3.0 SW 17 26 9 14 1017.2 1017.0 0.0
 
Date/Time
CDT
Temp
°C
App
Temp
°C
Dew
Point
°C
Rel
Hum
%
Delta-T
°C
Wind Press
QNH
hPa
Press
MSL
hPa
Rain since
9am
mm
Dir  Spd
km/h
Gust
km/h
Spd
kts
Gust
kts
14/11:30pm 13.7 11.2 8.3 70 2.7 WSW 11 15 6 8 1017.5 1017.3 0.0
14/11:00pm 12.7 9.8 8.2 74 2.2 SW 13 17 7 9 1017.6 1017.4 0.0
14/10:30pm 13.0 10.2 8.7 75 2.2 SW 13 15 7 8 1017.9 1017.7 0.0
14/10:00pm 13.6 10.5 8.7 72 2.5 SW 15 20 8 11 1018.0 1017.8 0.0
14/09:30pm 14.2 10.7 8.6 69 2.8 SW 17 22 9 12 1017.8 1017.6 0.0
14/09:00pm 14.1 11.3 8.7 70 2.7 SW 13 19 7 10 1017.6 1017.4 0.0
14/08:30pm 14.3 10.6 9.3 72 2.6 SSW 19 26 10 14 1017.5 1017.3 0.0
14/08:00pm 14.8 10.8 9.0 68 3.0 SW 20 28 11 15 1017.4 1017.2 0.0
14/07:30pm 15.9 11.5 8.9 63 3.6 SW 22 30 12 16 1017.2 1017.0 0.0
14/07:00pm 16.8 12.5 9.5 62 3.8 SW 22 28 12 15 1017.2 1017.0 0.0
14/06:30pm 18.5 14.6 9.6 56 4.7 SW 20 28 11 15 1017.0 1016.8 0.0
14/06:00pm 19.4 14.0 7.8 47 6.0 WSW 26 39 14 21 1017.1 1016.9 0.0
14/05:30pm 19.7 14.4 8.4 48 5.9 WSW 26 33 14 18 1017.0 1016.8 0.0
14/05:00pm 20.4 14.2 7.7 44 6.6 W 30 41 16 22 1017.2 1017.0 0.0
14/04:30pm 20.5 14.4 8.2 45 6.4 WSW 30 39 16 21 1017.2 1017.0 0.0
14/04:00pm 20.9 15.2 8.2 44 6.6 W 28 44 15 24 1017.3 1017.1 0.0
14/03:30pm 21.4 14.9 8.3 43 6.9 W 32 43 17 23 1017.5 1017.3 0.0
14/03:00pm 21.3 15.5 7.9 42 7.0 W 28 39 15 21 1017.6 1017.4 0.0
14/02:47pm 21.3 15.5 7.9 42 7.0 W 28 46 15 25 1017.8 1017.6 0.0
14/02:30pm 21.4 15.7 8.3 43 6.9 W 28 39 15 21 1018.1 1017.9 0.0
14/02:08pm 20.9 15.1 7.9 43 6.8 W 28 46 15 25 1018.3 1018.1 0.0
14/02:00pm 20.9 16.0 8.5 45 6.5 W 24 39 13 21 1018.5 1018.3 0.0
14/01:30pm 21.1 16.3 8.7 45 6.5 W 24 37 13 20 1018.7 1018.5 0.0
14/01:00pm 19.1 13.7 8.1 49 5.7 W 26 35 14 19 1019.4 1019.2 0.0
14/12:30pm 19.3 14.0 8.6 50 5.6 W 26 33 14 18 1019.8 1019.6 0.0
14/12:00pm 18.3 12.8 7.4 49 5.5 W 26 39 14 21 1020.3 1020.1 0.0
14/11:30am 17.5 12.6 8.6 56 4.6 W 24 35 13 19 1020.5 1020.3 0.0
14/11:00am 16.6 12.6 9.1 61 3.9 WSW 20 30 11 16 1020.7 1020.5 0.0
14/10:30am 16.5 12.4 8.7 60 4.0 WSW 20 32 11 17 1020.8 1020.6 0.0
14/10:00am 15.6 12.3 9.5 67 3.2 WSW 17 26 9 14 1021.0 1020.8 0.0
14/09:30am 14.7 9.7 9.5 71 2.7 WSW 26 33 14 18 1021.1 1020.9 0.0
14/09:00am 15.0 11.5 8.9 67 3.1 W 17 24 9 13 1020.9 1020.7 0.2
14/08:30am 14.9 10.6 7.9 63 3.5 W 20 28 11 15 1020.9 1020.7 0.2
14/08:00am 14.6 10.9 8.1 65 3.3 WSW 17 22 9 12 1020.7 1020.5 0.2
14/07:30am 14.2 10.1 7.7 65 3.2 W 19 26 10 14 1020.5 1020.3 0.2
14/07:00am 13.9 10.5 7.7 66 3.1 W 15 19 8 10 1020.4 1020.2 0.2
14/06:30am 13.7 10.7 7.5 66 3.0 W 13 20 7 11 1020.2 1020.0 0.2
14/06:00am 13.5 9.3 7.3 66 3.0 W 19 26 10 14 1020.0 1019.8 0.2
14/05:30am 13.5 10.1 7.7 68 2.9 W 15 20 8 11 1019.8 1019.6 0.2
14/05:00am 13.5 9.1 7.5 67 2.9 W 20 26 11 14 1019.8 1019.6 0.2
14/04:30am 13.5 9.3 8.1 70 2.7 W 20 26 11 14 1019.9 1019.7 0.2
14/04:00am 13.5 10.3 8.4 71 2.6 W 15 20 8 11 1019.9 1019.7 0.2
14/03:30am 13.2 9.5 8.1 71 2.5 WNW 17 20 9 11 1019.9 1019.7 0.2
14/03:00am 13.4 9.7 8.0 70 2.7 W 17 24 9 13 1020.2 1020.0 0.2
14/02:30am 13.3 9.7 8.4 72 2.4 W 17 24 9 13 1020.7 1020.5 0.2
14/02:00am 13.5 9.4 8.6 72 2.5 W 20 26 11 14 1020.7 1020.5 0.2
14/01:30am 14.0 10.0 9.0 72 2.5 W 20 26 11 14 1021.1 1020.9 0.2
14/01:00am 13.8 11.2 9.3 74 2.3 WNW 13 17 7 9 1021.2 1021.0 0.2
14/12:30am 13.6 11.3 9.1 74 2.3 W 11 13 6 7 1021.6 1021.4 0.2
14/12:00am 14.1 11.5 9.3 73 2.4 WSW 13 17 7 9 1021.8 1021.7 0.2
 
Date/Time
CDT
Temp
°C
App
Temp
°C
Dew
Point
°C
Rel
Hum
%
Delta-T
°C
Wind Press
QNH
hPa
Press
MSL
hPa
Rain since
9am
mm
Dir  Spd
km/h
Gust
km/h
Spd
kts
Gust
kts
13/11:30pm 14.4 11.9 9.6 73 2.5 WSW 13 15 7 8 1022.0 1021.9 0.2
13/11:00pm 14.0 12.7 9.8 76 2.2 SW 7 11 4 6 1022.2 1022.1 0.2
13/10:30pm 13.5 11.7 9.6 77 2.0 SW 9 11 5 6 1022.4 1022.3 0.2
13/10:00pm 14.4 11.5 9.8 74 2.4 SSW 15 22 8 12 1022.3 1022.2 0.2
13/09:30pm 15.1 12.4 10.3 73 2.5 SW 15 26 8 14 1022.2 1022.1 0.2
13/09:00pm 11.8 9.2 5.9 67 2.8 W 9 11 5 6 1021.9 1021.8 0.2
13/08:30pm 14.0 11.2 7.1 63 3.4 WSW 11 13 6 7 1021.5 1021.3 0.2
13/08:00pm 15.1 12.3 6.9 58 4.0 WSW 11 13 6 7 1021.2 1021.0 0.2
13/07:30pm 16.6 13.0 6.7 52 4.9 SW 15 20 8 11 1021.2 1021.0 0.2
13/07:00pm 17.4 12.9 6.9 50 5.2 SW 20 26 11 14 1021.1 1020.9 0.2
13/06:30pm 18.2 13.9 7.9 51 5.2 SW 20 28 11 15 1021.2 1021.0 0.2
13/06:00pm 18.5 13.5 7.9 50 5.4 SW 24 33 13 18 1021.1 1020.9 0.2
13/05:30pm 19.3 13.9 8.0 48 5.8 WSW 26 37 14 20 1021.0 1020.8 0.2
13/05:00pm 19.3 13.4 7.4 46 6.1 WSW 28 39 15 21 1020.9 1020.7 0.2
13/04:30pm 19.3 13.2 6.4 43 6.4 WSW 28 39 15 21 1021.1 1020.9 0.2
13/04:00pm 20.1 14.7 6.5 41 6.9 WSW 24 39 13 21 1021.3 1021.1 0.2
13/03:30pm 19.5 13.2 5.9 41 6.7 SW 28 37 15 20 1021.5 1021.3 0.2
13/03:00pm 19.6 13.5 4.9 38 7.1 SW 26 37 14 20 1021.9 1021.8 0.2
13/02:30pm 19.7 14.2 6.1 41 6.8 SW 24 35 13 19 1022.0 1021.9 0.2
13/02:00pm 19.3 14.1 5.4 40 6.8 SW 22 35 12 19 1022.0 1021.9 0.2
13/01:30pm 20.1 14.0 4.6 36 7.5 WSW 26 35 14 19 1022.1 1022.0 0.2
13/01:00pm 18.6 14.1 6.8 46 5.9 WSW 20 35 11 19 1022.3 1022.2 0.2
13/12:30pm 18.7 14.0 7.8 49 5.6 SW 22 33 12 18 1022.5 1022.4 0.2
13/12:00pm 17.2 11.9 7.0 51 5.1 SW 24 32 13 17 1022.8 1022.7 0.2
13/11:30am 16.9 12.2 7.8 55 4.6 WSW 22 32 12 17 1022.6 1022.5 0.0
13/11:00am 16.6 12.4 8.3 58 4.2 WSW 20 28 11 15 1023.0 1022.9 0.0
13/10:30am 15.4 11.0 7.4 59 4.0 SW 20 32 11 17 1023.3 1023.2 0.0
13/10:00am 15.4 10.1 6.9 57 4.2 SW 24 32 13 17 1023.3 1023.2 0.0
13/09:30am 16.3 10.9 6.4 52 4.8 SW 24 35 13 19 1023.5 1023.4 0.0
13/09:00am 15.1 11.0 8.6 65 3.3 WSW 20 28 11 15 1023.0 1022.9 0.0
13/08:30am 14.4 10.1 7.7 64 3.3 SW 20 28 11 15 1023.1 1023.0 0.0
13/08:00am 14.2 9.9 7.7 65 3.2 SW 20 30 11 16 1022.6 1022.5 0.0
13/07:30am 13.7 10.6 9.0 73 2.4 SW 15 20 8 11 1022.2 1022.1 0.0
13/07:00am 12.6 9.6 9.1 79 1.8 SW 15 20 8 11 1021.9 1021.8 0.0
13/06:30am 12.1 9.7 10.0 87 1.1 WSW 13 17 7 9 1021.4 1021.2 0.0
13/06:00am 12.5 9.5 9.3 81 1.6 WSW 15 22 8 12 1021.1 1020.9 0.0
13/05:30am 12.1 9.2 9.8 86 1.2 WNW 15 19 8 10 1020.9 1020.7 0.0
13/05:00am 11.7 9.2 9.8 88 1.0 W 13 17 7 9 1021.1 1020.9 0.0
13/04:30am 11.7 9.6 9.8 88 1.0 W 11 17 6 9 1021.4 1021.2 0.0
13/04:00am 12.4 8.9 8.7 78 1.8 W 17 20 9 11 1021.6 1021.4 0.0
13/03:30am 13.1 9.1 6.5 64 3.2 SW 17 24 9 13 1021.6 1021.4 0.0
13/03:00am 11.3 8.6 5.6 68 2.6 WSW 9 11 5 6 1021.7 1021.5 0.0
13/02:30am 11.5 8.7 5.2 65 2.9 WSW 9 13 5 7 1021.9 1021.8 0.0
13/02:00am 12.6 8.6 5.1 60 3.5 SW 15 20 8 11 1022.2 1022.1 0.0
13/01:30am 12.1 8.0 4.6 60 3.4 SW 15 20 8 11 1022.5 1022.4 0.0
13/01:00am 11.7 7.6 4.2 60 3.4 SW 15 20 8 11 1022.7 1022.6 0.0
13/12:30am 11.9 7.0 3.9 58 3.6 SW 19 26 10 14 1022.9 1022.8 0.0
13/12:00am 12.9 7.5 4.3 56 3.9 SW 22 35 12 19 1022.9 1022.8 0.0
 
Date/Time
CDT
Temp
°C
App
Temp
°C
Dew
Point
°C
Rel
Hum
%
Delta-T
°C
Wind Press
QNH
hPa
Press
MSL
hPa
Rain since
9am
mm
Dir  Spd
km/h
Gust
km/h
Spd
kts
Gust
kts
12/11:30pm 13.4 8.2 5.3 58 3.8 SW 22 37 12 20 1022.8 1022.7 0.0
12/11:00pm 13.2 9.6 4.9 57 3.8 SW 13 22 7 12 1022.6 1022.5 0.0

Other formats

Comma delimited format used in spreadsheet applications
http://www.bom.gov.au/fwo/IDS60801/IDS60801.95671.axf

JavaScript Object Notation format (JSON) in row-major order
http://www.bom.gov.au/fwo/IDS60801/IDS60801.95671.json

Data quality

Most of these data are generated automatically and are frequently updated. Quality checks on data are not normally performed. It is possible for incorrect values to appear. Refer to information at About Latest Weather Observations and please check the disclaimer before using these data.